Time;durP1;ratioP1;P1;durP2;ratioP2;P2;SDS_P1;SDS_P2;PMS_P1;PMS_P2;Temp;Humidity;BMP_temperature;BMP_pressure;BME280_temperature;BME280_humidity;BME280_pressure;Samples;Min_cycle;Max_cycle;Signal;HPM_P1;HPM_P2
2021/06/19 00:02:00;;;;;;;;;4.50;4.50;;;;;21.70;59.55;101179.63;5076742;27;45500;-93
2021/06/19 00:04:30;;;;;;;;;5.50;5.50;;;;;21.71;58.75;101187.47;5075907;28;46842;-91
2021/06/19 00:07:02;;;;;;;;;6.25;6.25;;;;;21.63;58.98;101188.00;5059735;28;45418;-92
2021/06/19 00:09:33;;;;;;;;;5.00;5.00;;;;;21.63;59.05;101195.97;5075396;28;45401;-93
2021/06/19 00:12:04;;;;;;;;;4.50;4.50;;;;;21.60;59.70;101182.13;5059156;28;45519;-92
2021/06/19 00:14:34;;;;;;;;;5.50;4.75;;;;;21.60;59.44;101179.47;5075834;28;47212;-92
2021/06/19 00:17:00;;;;;;;;;5.00;5.00;;;;;21.60;59.55;101190.06;5059373;28;45526;-92
2021/06/19 00:19:25;;;;;;;;;5.00;5.00;;;;;21.58;59.38;101192.81;5076322;28;45462;-91
2021/06/19 00:21:51;;;;;;;;;5.50;5.50;;;;;21.57;59.54;101192.97;5076590;28;45511;-92
2021/06/19 00:24:27;;;;;;;;;7.00;7.00;;;;;21.54;59.99;101194.03;5059286;28;46779;-92
2021/06/19 00:26:55;;;;;;;;;4.50;4.50;;;;;21.53;59.94;101189.69;5047521;28;45491;-92
2021/06/19 00:29:21;;;;;;;;;5.25;5.25;;;;;21.49;59.69;101177.66;5056747;28;45357;-92
2021/06/19 00:31:47;;;;;;;;;5.00;5.00;;;;;21.52;60.13;101195.09;5039480;28;45250;-92
2021/06/19 00:34:16;;;;;;;;;6.00;6.00;;;;;21.49;59.72;101198.81;5038913;28;46680;-91
2021/06/19 00:36:41;;;;;;;;;5.50;5.00;;;;;21.46;60.38;101199.03;5067401;28;45508;-92
2021/06/19 00:39:07;;;;;;;;;6.00;5.00;;;;;21.48;59.59;101199.78;5038609;28;45491;-91
2021/06/19 00:41:34;;;;;;;;;4.00;4.00;;;;;21.40;60.33;101187.13;5039237;28;45551;-91
2021/06/19 00:44:22;;;;;;;;;5.25;5.25;;;;;21.45;59.83;101195.56;5055519;28;46863;-91
2021/06/19 00:46:55;;;;;;;;;6.50;6.00;;;;;21.40;60.29;101188.91;5063748;27;46174;-93
2021/06/19 00:49:23;;;;;;;;;7.00;6.25;;;;;21.37;60.10;101187.34;5096587;27;45315;-92
2021/06/19 00:51:49;;;;;;;;;7.00;7.00;;;;;21.38;60.56;101189.03;5082986;27;45261;-92
2021/06/19 00:54:23;;;;;;;;;6.00;6.00;;;;;21.35;59.89;101195.41;5081523;27;47560;-91
2021/06/19 00:56:50;;;;;;;;;7.50;6.25;;;;;21.32;60.17;101187.69;5090672;27;45481;-92
2021/06/19 00:59:16;;;;;;;;;7.00;7.00;;;;;21.25;60.29;101186.47;5042441;28;45465;-92
2021/06/19 01:01:42;;;;;;;;;6.67;6.00;;;;;21.27;60.71;101199.56;5042691;28;45578;-92
2021/06/19 01:04:08;;;;;;;;;5.50;5.50;;;;;21.25;60.40;101201.50;5041642;28;47308;-92
2021/06/19 01:06:37;;;;;;;;;7.00;7.00;;;;;21.24;60.88;101205.94;5041961;28;45492;-92
2021/06/19 01:09:08;;;;;;;;;6.75;6.00;;;;;21.18;60.59;101201.97;5060696;28;45926;-92
2021/06/19 01:11:34;;;;;;;;;6.00;6.00;;;;;21.18;60.79;101207.25;5079875;27;45483;-91
2021/06/19 01:14:00;;;;;;;;;5.00;5.00;;;;;21.12;60.58;101202.41;5070405;28;47098;-92
2021/06/19 01:16:26;;;;;;;;;6.00;6.00;;;;;21.14;61.21;101195.19;5078883;28;45317;-90
2021/06/19 01:18:54;;;;;;;;;6.00;6.00;;;;;21.10;60.96;101175.22;5065054;28;45205;-92
2021/06/19 01:21:26;;;;;;;;;7.00;7.00;;;;;21.14;61.42;101179.31;5079124;28;45376;-92
2021/06/19 01:23:55;;;;;;;;;3.00;3.00;;;;;21.14;60.95;101179.31;5078951;28;47300;-92
2021/06/19 01:26:29;;;;;;;;;6.00;6.00;;;;;21.11;61.28;101168.97;5078685;28;45747;-92
2021/06/19 01:28:56;;;;;;;;;7.50;6.00;;;;;21.09;61.54;101176.16;5073466;28;45367;-92
2021/06/19 01:31:22;;;;;;;;;7.50;5.75;;;;;21.10;61.05;101185.78;5041134;28;45681;-91
2021/06/19 01:33:51;;;;;;;;;6.00;5.50;;;;;21.08;61.26;101193.00;5057897;28;47063;-92
2021/06/19 01:36:18;;;;;;;;;6.25;5.25;;;;;21.06;61.06;101194.94;5058333;28;45353;-92
2021/06/19 01:38:46;;;;;;;;;6.00;6.00;;;;;21.05;61.38;101203.81;5045211;28;45266;-91
2021/06/19 01:41:17;;;;;;;;;5.33;5.33;;;;;21.02;61.15;101196.09;5094364;27;46112;-92
2021/06/19 01:43:48;;;;;;;;;6.25;4.75;;;;;21.02;61.52;101204.88;5082626;27;47432;-91
2021/06/19 01:46:14;;;;;;;;;6.00;6.00;;;;;21.02;61.43;101206.69;5088279;27;45421;-92
2021/06/19 01:48:40;;;;;;;;;6.00;6.00;;;;;21.00;61.33;101206.78;5094940;27;45332;-92
2021/06/19 01:51:10;;;;;;;;;8.00;6.00;;;;;20.96;61.28;101198.25;5087069;27;45551;-91
2021/06/19 01:53:43;;;;;;;;;4.25;4.25;;;;;20.95;61.67;101204.50;5098592;27;47160;-91
2021/06/19 01:56:13;;;;;;;;;8.00;6.50;;;;;20.92;61.79;101204.72;5098878;27;45334;-91
2021/06/19 01:58:41;;;;;;;;;5.00;5.00;;;;;20.92;61.65;101209.16;5099009;27;45710;-91
2021/06/19 02:01:10;;;;;;;;;4.00;4.00;;;;;20.89;61.59;101206.72;5084544;27;45599;-91
2021/06/19 02:03:36;;;;;;;;;6.00;6.00;;;;;20.86;61.83;101205.16;5040823;28;47103;-92
2021/06/19 02:06:05;;;;;;;;;5.50;5.50;;;;;20.83;61.77;101198.25;5040486;28;46112;-92
2021/06/19 02:08:30;;;;;;;;;6.75;6.75;;;;;20.84;62.05;101193.81;5041269;28;45406;-91
2021/06/19 02:10:58;;;;;;;;;6.75;6.00;;;;;20.80;61.90;101187.91;5043905;28;45438;-91
2021/06/19 02:13:23;;;;;;;;;4.00;4.00;;;;;20.81;62.19;101194.03;5076996;27;47105;-92
2021/06/19 02:15:52;;;;;;;;;6.00;6.00;;;;;20.80;61.96;101201.13;5114074;27;45316;-92
2021/06/19 02:18:18;;;;;;;;;8.00;8.00;;;;;20.80;62.20;101206.44;5119232;27;45330;-90
2021/06/19 02:20:44;;;;;;;;;7.00;7.00;;;;;20.75;62.42;101186.53;5118927;27;45598;-91
2021/06/19 02:23:10;;;;;;;;;12.25;9.25;;;;;20.76;62.47;101189.09;5100605;27;47396;-91
2021/06/19 02:25:36;;;;;;;;;8.25;8.25;;;;;20.76;62.52;101186.44;5079120;28;45272;-93
2021/06/19 02:28:05;;;;;;;;;8.25;8.25;;;;;20.74;62.44;101188.34;5079133;28;45336;-92
2021/06/19 02:30:44;;;;;;;;;8.75;8.00;;;;;20.77;62.16;101188.13;5061251;28;45340;-92
2021/06/19 02:33:11;;;;;;;;;7.50;7.50;;;;;20.75;62.57;101192.69;5072580;27;45579;-91
2021/06/19 02:35:39;;;;;;;;;9.50;9.00;;;;;20.76;62.80;101199.66;5101422;27;45876;-92
2021/06/19 02:38:07;;;;;;;;;8.67;8.33;;;;;20.76;62.56;101198.81;5101602;27;45433;-91
2021/06/19 02:40:33;;;;;;;;;9.00;9.00;;;;;20.73;62.72;101201.69;5102138;27;45426;-92
2021/06/19 02:42:59;;;;;;;;;9.50;8.75;;;;;20.72;62.45;101200.84;5099644;27;47309;-91
2021/06/19 02:45:25;;;;;;;;;7.75;7.25;;;;;20.71;63.18;101207.09;5097832;27;45460;-91
2021/06/19 02:47:54;;;;;;;;;8.25;7.75;;;;;20.69;62.80;101215.13;5097846;27;45315;-91
2021/06/19 02:50:24;;;;;;;;;10.25;8.25;;;;;20.67;62.44;101217.03;5081114;27;45296;-92
2021/06/19 02:52:50;;;;;;;;;10.50;9.25;;;;;20.69;62.70;101217.75;5099095;27;46854;-92
2021/06/19 02:55:19;;;;;;;;;8.50;8.50;;;;;20.68;63.03;101213.44;5107459;27;45336;-92
2021/06/19 02:57:45;;;;;;;;;8.50;8.50;;;;;20.66;63.05;101206.56;5100826;27;45306;-92
2021/06/19 03:00:13;;;;;;;;;10.00;10.00;;;;;20.68;63.34;101207.28;5101632;27;45417;-92
2021/06/19 03:02:40;;;;;;;;;9.50;9.00;;;;;20.64;62.96;101211.13;5086878;27;48044;-92
2021/06/19 03:05:07;;;;;;;;;9.00;9.00;;;;;20.62;62.90;101215.66;5080100;27;45294;-91
2021/06/19 03:07:32;;;;;;;;;10.00;10.00;;;;;20.59;62.78;101216.72;5090783;27;46026;-91
2021/06/19 03:09:58;;;;;;;;;9.00;9.00;;;;;20.55;62.79;101213.47;5101242;27;45580;-92
2021/06/19 03:12:26;;;;;;;;;7.75;7.75;;;;;20.57;63.25;101210.72;5099699;27;47062;-91
2021/06/19 03:14:51;;;;;;;;;11.25;10.00;;;;;20.55;63.05;101207.34;5106582;27;45484;-92
2021/06/19 03:17:17;;;;;;;;;8.25;8.25;;;;;20.55;63.46;101213.47;5080341;27;45521;-93
2021/06/19 03:19:42;;;;;;;;;11.50;8.25;;;;;20.52;63.42;101207.53;5098556;27;45505;-92
2021/06/19 03:22:08;;;;;;;;;8.00;7.25;;;;;20.54;63.21;101208.28;5097275;27;47129;-92
2021/06/19 03:24:42;;;;;;;;;7.00;7.00;;;;;20.55;63.40;101213.47;5094072;27;45459;-91
2021/06/19 03:27:09;;;;;;;;;9.00;8.75;;;;;20.55;63.30;101212.63;5079782;27;45699;-92
2021/06/19 03:29:36;;;;;;;;;8.25;8.25;;;;;20.53;63.52;101214.53;5080221;27;45352;-91
2021/06/19 03:32:02;;;;;;;;;6.75;6.75;;;;;20.52;63.41;101213.69;5080222;27;47240;-92
2021/06/19 03:34:28;;;;;;;;;8.25;8.00;;;;;20.51;63.12;101214.63;5079966;27;46063;-91
2021/06/19 03:37:00;;;;;;;;;8.75;8.00;;;;;20.48;63.40;101217.50;5093536;27;45246;-92
2021/06/19 03:39:34;;;;;;;;;7.00;6.25;;;;;20.42;63.75;101210.84;5060077;28;45470;-92
2021/06/19 03:42:01;;;;;;;;;10.00;9.25;;;;;20.40;63.49;101204.81;5059949;28;47968;-91
2021/06/19 03:44:29;;;;;;;;;10.00;7.25;;;;;20.36;63.62;101203.34;5059999;28;45344;-93
2021/06/19 03:46:55;;;;;;;;;7.25;7.25;;;;;20.35;63.90;101206.94;5060110;28;45300;-92
2021/06/19 03:49:21;;;;;;;;;7.75;7.75;;;;;20.37;63.69;101206.84;5082817;27;45487;-91
2021/06/19 03:51:48;;;;;;;;;9.00;9.00;;;;;20.37;63.95;101201.56;5100297;27;48123;-91
2021/06/19 03:54:14;;;;;;;;;9.25;9.00;;;;;20.34;64.06;101194.69;5100091;27;45853;-92
2021/06/19 03:56:40;;;;;;;;;10.00;9.00;;;;;20.33;63.49;101193.00;5100053;27;45403;-92
2021/06/19 03:59:06;;;;;;;;;9.50;8.00;;;;;20.34;64.05;101207.03;5112334;27;45283;-91
2021/06/19 04:01:32;;;;;;;;;10.00;8.50;;;;;20.34;63.58;101204.41;5099772;27;47316;-92
2021/06/19 04:04:00;;;;;;;;;11.50;8.75;;;;;20.33;63.64;101210.63;5098770;27;45842;-92
2021/06/19 04:06:26;;;;;;;;;10.00;9.00;;;;;20.29;64.00;101208.19;5079740;27;45338;-91
2021/06/19 04:08:52;;;;;;;;;9.75;9.50;;;;;20.28;63.86;101211.81;5097768;27;45346;-91
2021/06/19 04:11:18;;;;;;;;;10.25;10.25;;;;;20.28;63.94;101208.34;5098981;27;47247;-91
2021/06/19 04:13:44;;;;;;;;;8.50;8.00;;;;;20.27;63.99;101198.72;5099893;27;45328;-91
2021/06/19 04:16:10;;;;;;;;;11.50;10.75;;;;;20.29;63.94;101204.72;5099690;27;45538;-92
2021/06/19 04:18:39;;;;;;;;;11.50;10.00;;;;;20.29;64.26;101200.28;5096633;27;45334;-91
2021/06/19 04:21:07;;;;;;;;;9.25;9.00;;;;;20.27;64.25;101191.63;5099916;27;48248;-91
2021/06/19 04:23:33;;;;;;;;;9.50;9.00;;;;;20.35;64.08;101208.72;5088554;27;45423;-91
2021/06/19 04:26:00;;;;;;;;;9.75;9.25;;;;;20.34;64.45;101210.53;5063178;28;45483;-91
2021/06/19 04:28:33;;;;;;;;;11.75;9.75;;;;;20.41;64.29;101213.59;5086378;27;45543;-92
2021/06/19 04:31:00;;;;;;;;;11.25;9.50;;;;;20.43;64.56;101216.97;5083102;27;46957;-91
2021/06/19 04:33:27;;;;;;;;;10.00;10.00;;;;;20.49;64.41;101215.69;5082996;27;45541;-90
2021/06/19 04:35:53;;;;;;;;;12.00;12.00;;;;;20.51;64.22;101209.34;5083040;27;45352;-91
2021/06/19 04:38:19;;;;;;;;;11.50;11.50;;;;;20.54;64.28;101201.19;5082928;27;45449;-91
2021/06/19 04:40:57;;;;;;;;;13.25;12.75;;;;;20.57;64.24;101223.94;5073721;28;47374;-91
2021/06/19 04:43:32;;;;;;;;;12.75;12.00;;;;;20.60;64.32;101226.34;5062542;28;45459;-91
2021/06/19 04:46:01;;;;;;;;;9.00;8.33;;;;;20.65;64.33;101231.31;5081603;27;45608;-92
2021/06/19 04:48:26;;;;;;;;;11.00;9.75;;;;;20.67;64.15;101213.53;5082988;27;45319;-92
2021/06/19 04:50:52;;;;;;;;;11.25;10.00;;;;;20.70;64.25;101211.50;5112986;27;46440;-92
2021/06/19 04:53:21;;;;;;;;;12.00;10.00;;;;;20.74;64.05;101220.06;5103321;27;45232;-90
2021/06/19 04:55:49;;;;;;;;;9.75;9.75;;;;;20.75;64.38;101216.50;5102815;27;45550;-92
2021/06/19 04:58:15;;;;;;;;;13.00;10.67;;;;;20.77;64.67;101217.22;5103454;27;45540;-91
2021/06/19 05:00:43;;;;;;;;;8.67;8.00;;;;;20.84;64.28;101217.63;5098361;27;48053;-92
2021/06/19 05:03:09;;;;;;;;;9.33;8.00;;;;;20.87;64.07;101222.72;5103053;27;45316;-92
2021/06/19 05:05:35;;;;;;;;;12.00;9.00;;;;;20.93;64.34;101222.25;5103105;27;45343;-90
2021/06/19 05:08:00;;;;;;;;;10.00;9.00;;;;;20.98;64.00;101227.25;5095539;27;45481;-92
2021/06/19 05:10:29;;;;;;;;;10.25;7.75;;;;;21.05;63.56;101228.47;5100085;27;46294;-92
2021/06/19 05:12:55;;;;;;;;;11.00;8.00;;;;;21.07;63.05;101218.59;5102684;27;45489;-92
2021/06/19 05:15:26;;;;;;;;;15.75;14.50;;;;;21.13;63.17;101232.34;5099752;27;45233;-91
2021/06/19 05:17:56;;;;;;;;;14.50;14.00;;;;;21.19;63.06;101235.41;5081197;27;45719;-91
2021/06/19 05:20:26;;;;;;;;;19.00;17.25;;;;;21.25;62.73;101241.19;5082282;27;47003;-91
2021/06/19 05:22:52;;;;;;;;;20.00;16.50;;;;;21.30;63.00;101239.88;5077725;28;45565;-91
2021/06/19 05:25:17;;;;;;;;;17.50;15.25;;;;;21.32;62.91;101230.06;5068415;28;45533;-92
2021/06/19 05:27:43;;;;;;;;;18.75;18.25;;;;;21.36;61.95;101236.81;5103731;27;46448;-92
2021/06/19 05:30:15;;;;;;;;;28.00;26.75;;;;;21.45;62.61;101237.94;5102290;27;47970;-92
2021/06/19 05:32:43;;;;;;;;;32.00;31.25;;;;;21.50;62.53;101240.22;5095041;27;45500;-90
2021/06/19 05:35:11;;;;;;;;;46.25;39.00;;;;;21.56;62.23;101241.59;5081429;27;45402;-91
2021/06/19 05:37:40;;;;;;;;;45.75;39.00;;;;;21.60;61.92;101235.06;5081392;27;45372;-92
2021/06/19 05:40:06;;;;;;;;;50.25;41.25;;;;;21.63;62.36;101235.69;5098649;27;47308;-92
2021/06/19 05:42:32;;;;;;;;;51.75;42.75;;;;;21.65;61.56;101232.09;5081474;27;45366;-92
2021/06/19 05:45:31;;;;;;;;;53.50;44.00;;;;;21.69;61.86;101223.78;5086215;27;45472;-92
2021/06/19 05:48:10;;;;;;;;;;;;;;;;;;;;;
2021/06/19 05:50:52;;;;;;;;;43.50;37.50;;;;;21.84;61.47;101223.63;5108536;27;75118;-92
2021/06/19 05:53:23;;;;;;;;;37.25;33.25;;;;;21.86;61.58;101219.88;5080730;27;45509;-92
2021/06/19 05:56:13;;;;;;;;;;;;;;;;;;;;;
2021/06/19 05:58:47;;;;;;;;;25.50;25.25;;;;;21.90;61.39;101201.97;5119640;27;64349;-91
2021/06/19 06:01:15;;;;;;;;;29.50;26.50;;;;;21.96;61.51;101211.22;5119252;27;47025;-92
2021/06/19 06:03:51;;;;;;;;;;;;;;;;;;;;;
2021/06/19 06:06:40;;;;;;;;;;;;;;;;;;;;;
2021/06/19 06:09:10;;;;;;;;;20.25;18.50;;;;;21.98;61.20;101204.84;5089553;27;63022;-92
2021/06/19 06:11:44;;;;;;;;;21.50;20.50;;;;;22.00;61.01;101196.78;5078149;27;48053;-91
2021/06/19 06:14:21;;;;;;;;;28.00;25.25;;;;;22.08;61.01;101201.50;5073322;28;45439;-93
2021/06/19 06:16:46;;;;;;;;;24.75;23.50;;;;;22.10;60.85;101196.91;5080877;27;46878;-92
2021/06/19 06:19:19;;;;;;;;;19.50;18.00;;;;;22.11;60.64;101199.44;5082523;27;45508;-91
2021/06/19 06:25:46;;;;;;;;;;;;;;;;;;;;;
2021/06/19 06:28:45;;;;;;;;;11.67;11.67;;;;;22.19;61.15;101201.50;5025377;28;45663;-92
2021/06/19 06:31:16;;;;;;;;;12.00;10.50;;;;;22.22;60.97;101203.91;4996905;28;44898;-92
2021/06/19 06:34:17;;;;;;;;;10.67;10.67;;;;;22.24;61.17;101202.00;4998887;28;46501;-92
2021/06/19 06:37:29;;;;;;;;;9.50;9.50;;;;;22.26;60.74;101199.22;4999813;28;45488;-93
2021/06/19 06:40:18;;;;;;;;;;;;;;;;;;;;;
2021/06/19 06:42:55;;;;;;;;;10.50;10.50;;;;;22.29;60.57;101220.16;5015271;28;64347;-93
2021/06/19 06:49:15;;;;;;;;;9.25;9.25;;;;;22.33;60.77;101226.06;5015089;28;45509;-92
2021/06/19 06:52:26;;;;;;;;;;;;;;;;;;;;;
2021/06/19 06:55:34;;;;;;;;;9.50;9.00;;;;;22.38;61.14;101231.84;4873705;29;63794;-92
2021/06/19 06:58:23;;;;;;;;;13.25;10.50;;;;;22.39;60.80;101230.88;4880987;28;46941;-92
2021/06/19 07:00:56;;;;;;;;;10.75;8.50;;;;;22.39;61.21;101233.53;4860412;29;45416;-92
2021/06/19 07:03:49;;;;;;;;;11.75;10.25;;;;;22.39;61.09;101223.78;4847505;29;45497;-93
2021/06/19 07:06:28;;;;;;;;;11.50;11.50;;;;;22.40;61.24;101232.59;4937528;28;45670;-93
2021/06/19 07:09:14;;;;;;;;;;;;;;;;;;;;;
2021/06/19 07:11:56;;;;;;;;;;;;;;;;;;;;;
2021/06/19 07:14:37;;;;;;;;;8.50;8.25;;;;;22.52;60.50;101226.34;4942744;28;70279;-92
2021/06/19 07:17:13;;;;;;;;;7.50;7.50;;;;;22.60;60.68;101231.03;4956623;28;45455;-91
2021/06/19 07:19:52;;;;;;;;;8.00;7.33;;;;;22.65;60.29;101212.09;4937508;28;46501;-92
2021/06/19 07:22:54;;;;;;;;;7.00;7.00;;;;;22.73;60.38;101222.09;4918065;28;45768;-92
2021/06/19 07:25:24;;;;;;;;;10.00;7.67;;;;;22.83;60.60;101215.91;4918734;28;45526;-93
2021/06/19 07:28:23;;;;;;;;;7.00;7.00;;;;;22.93;60.04;101215.19;4916765;28;45718;-92
2021/06/19 07:31:11;;;;;;;;;7.00;7.00;;;;;23.00;59.27;101208.41;4958169;28;48098;-92
2021/06/19 07:36:58;;;;;;;;;7.00;7.00;;;;;23.17;59.46;101184.94;4975264;28;45447;-93
2021/06/19 07:39:54;;;;;;;;;6.25;6.25;;;;;23.17;58.84;101175.16;4942272;28;45696;-92
2021/06/19 07:42:35;;;;;;;;;10.50;9.00;;;;;23.20;59.05;101166.09;4940045;28;47412;-92
2021/06/19 07:48:11;;;;;;;;;6.00;6.00;;;;;23.29;58.08;101117.53;4992661;28;45622;-92
2021/06/19 07:50:57;;;;;;;;;7.33;7.00;;;;;23.32;58.38;101103.19;4995517;28;45240;-92
2021/06/19 07:53:48;;;;;;;;;;;;;;;;;;;;;
2021/06/19 07:56:48;;;;;;;;;8.00;7.25;;;;;23.43;58.30;101131.50;5017600;28;72802;-93
2021/06/19 07:59:42;;;;;;;;;6.00;6.00;;;;;23.51;57.90;101147.63;5013836;28;45303;-92
2021/06/19 08:02:23;;;;;;;;;;;;;;;;;;;;;
2021/06/19 08:05:02;;;;;;;;;5.25;5.25;;;;;23.74;57.47;101148.31;5014108;28;74262;-92
2021/06/19 08:10:46;;;;;;;;;7.67;6.33;;;;;23.92;57.59;101141.56;4959425;28;45296;-92
2021/06/19 08:13:58;;;;;;;;;5.67;4.67;;;;;23.94;57.03;101127.16;4971051;28;45607;-94
2021/06/19 08:16:33;;;;;;;;;6.00;6.00;;;;;23.97;57.14;101112.75;4889954;29;47891;-93
2021/06/19 08:19:10;;;;;;;;;6.00;6.00;;;;;23.95;57.15;101088.13;4883313;28;45444;-93
2021/06/19 08:21:46;;;;;;;;;8.00;7.33;;;;;23.95;56.76;101085.47;4880913;29;45437;-93
2021/06/19 08:24:12;;;;;;;;;7.00;5.33;;;;;23.95;56.85;101077.50;4901616;28;45703;-92
2021/06/19 08:26:43;;;;;;;;;9.67;5.33;;;;;23.95;56.95;101096.09;4917365;28;45740;-92
2021/06/19 08:29:31;;;;;;;;;7.00;6.00;;;;;23.96;56.99;101114.56;4901235;28;45477;-92
2021/06/19 08:31:59;;;;;;;;;5.67;5.67;;;;;23.98;57.34;101141.84;4917214;28;45863;-92
2021/06/19 08:34:33;;;;;;;;;6.33;6.33;;;;;23.97;57.20;101142.81;4900819;28;45559;-92
2021/06/19 08:37:36;;;;;;;;;6.00;6.00;;;;;23.95;57.25;101136.81;4916941;28;45789;-92
2021/06/19 08:40:31;;;;;;;;;;;;;;;;;;;;;
2021/06/19 08:43:02;;;;;;;;;7.33;6.67;;;;;23.96;56.50;101108.41;4916321;28;69155;-92
2021/06/19 08:45:37;;;;;;;;;7.00;6.33;;;;;23.94;56.62;101095.25;4936890;28;45723;-93
2021/06/19 08:48:44;;;;;;;;;;;;;;;;;;;;;
2021/06/19 08:51:17;;;;;;;;;6.33;6.33;;;;;23.96;57.06;101098.63;4935259;28;73117;-92
2021/06/19 08:53:46;;;;;;;;;7.67;7.67;;;;;23.94;56.83;101097.06;4954581;28;45441;-92
2021/06/19 08:56:36;;;;;;;;;6.33;6.33;;;;;23.89;56.51;101090.34;4978119;28;45616;-92
2021/06/19 08:59:04;;;;;;;;;5.00;5.00;;;;;23.84;57.08;101079.25;4958291;28;48125;-92
2021/06/19 09:01:39;;;;;;;;;5.67;5.67;;;;;23.84;56.70;101070.47;4958406;28;45738;-91
2021/06/19 09:04:20;;;;;;;;;7.33;7.33;;;;;23.83;56.60;101076.75;4958057;28;45468;-93
2021/06/19 09:06:53;;;;;;;;;7.00;6.00;;;;;23.82;56.71;101075.91;4958263;28;45329;-92
2021/06/19 09:09:21;;;;;;;;;5.67;5.67;;;;;23.84;56.11;101063.31;4957489;28;46756;-92
2021/06/19 09:11:57;;;;;;;;;5.33;4.33;;;;;23.87;56.67;101068.38;4958760;28;45744;-92
2021/06/19 09:14:33;;;;;;;;;4.33;4.33;;;;;23.93;56.22;101080.28;4958836;28;45404;-91
2021/06/19 09:17:07;;;;;;;;;6.33;5.00;;;;;23.98;56.47;101074.56;4972740;28;45403;-92
2021/06/19 09:19:43;;;;;;;;;5.67;5.67;;;;;24.06;56.04;101076.56;4977913;28;46760;-92
2021/06/19 09:22:25;;;;;;;;;5.67;4.67;;;;;24.13;56.27;101075.91;4961311;28;45464;-91
2021/06/19 09:24:55;;;;;;;;;5.33;5.33;;;;;24.27;56.31;101077.34;4961805;28;45393;-93
2021/06/19 09:27:36;;;;;;;;;5.00;5.00;;;;;24.36;56.06;101078.34;4989331;28;45518;-93
2021/06/19 09:30:18;;;;;;;;;8.67;6.67;;;;;24.51;55.89;101077.91;5065971;27;48053;-92
2021/06/19 09:33:04;;;;;;;;;4.33;4.33;;;;;24.66;55.82;101084.50;5072489;27;45485;-91
2021/06/19 09:35:47;;;;;;;;;6.33;5.33;;;;;24.80;55.66;101079.72;5087681;27;45465;-92
2021/06/19 09:38:17;;;;;;;;;5.33;5.33;;;;;24.90;55.61;101083.25;5055373;28;45393;-91
2021/06/19 09:40:56;;;;;;;;;5.00;4.33;;;;;25.00;55.29;101069.13;5078836;27;45659;-92
2021/06/19 09:43:46;;;;;;;;;6.67;6.67;;;;;25.19;55.46;101076.22;5079394;27;45523;-91
2021/06/19 09:46:14;;;;;;;;;5.00;5.00;;;;;25.35;55.23;101072.94;5077639;28;45306;-91
2021/06/19 09:49:23;;;;;;;;;;;;;;;;;;;;;
2021/06/19 09:51:56;;;;;;;;;4.00;4.00;;;;;25.66;53.79;101069.22;5084190;27;75836;-91
2021/06/19 09:54:22;;;;;;;;;6.00;6.00;;;;;25.81;53.65;101062.44;5097284;27;45723;-91
2021/06/19 09:56:51;;;;;;;;;6.00;5.67;;;;;25.93;53.70;101071.09;5071482;27;45419;-91
2021/06/19 09:59:19;;;;;;;;;8.00;8.00;;;;;26.05;53.76;101069.03;5093010;27;45752;-91
2021/06/19 10:01:48;;;;;;;;;7.33;7.00;;;;;26.15;53.10;101067.16;5079811;27;47080;-91
2021/06/19 10:04:18;;;;;;;;;6.67;6.00;;;;;26.20;52.71;101064.03;5080307;27;45285;-92
2021/06/19 10:06:44;;;;;;;;;6.00;6.00;;;;;26.31;53.47;101062.16;5093849;27;45536;-91
2021/06/19 10:09:12;;;;;;;;;6.00;6.00;;;;;26.47;52.55;101056.16;5078980;28;45407;-90
2021/06/19 10:11:38;;;;;;;;;6.00;6.00;;;;;26.61;52.33;101042.28;5083665;27;45552;-91
2021/06/19 10:14:16;;;;;;;;;7.67;5.33;;;;;26.78;52.68;101037.91;5080128;27;45755;-91
2021/06/19 10:16:45;;;;;;;;;5.33;5.33;;;;;26.88;53.00;101039.66;5098279;27;45389;-91
2021/06/19 10:22:11;;;;;;;;;6.00;6.00;;;;;27.24;51.90;101033.38;5095959;27;46712;-91
2021/06/19 10:24:46;;;;;;;;;7.00;6.75;;;;;27.47;52.18;101039.03;5097449;27;45493;-92
2021/06/19 10:27:17;;;;;;;;;5.50;5.50;;;;;27.67;51.60;101038.81;5071420;27;45590;-91
2021/06/19 10:29:47;;;;;;;;;8.00;6.75;;;;;27.86;50.67;101030.53;5092208;27;45596;-90
2021/06/19 10:32:15;;;;;;;;;7.25;6.50;;;;;28.06;50.70;101021.38;5079051;27;47600;-90
2021/06/19 10:34:56;;;;;;;;;8.00;8.00;;;;;28.25;49.57;101025.63;5080227;27;45613;-91
2021/06/19 10:37:33;;;;;;;;;8.00;7.00;;;;;28.43;49.89;101027.31;5078145;27;45331;-91
2021/06/19 10:40:34;;;;;;;;;7.33;6.67;;;;;28.61;49.07;101024.47;5114896;27;45375;-91
2021/06/19 10:43:31;;;;;;;;;7.33;7.33;;;;;28.84;49.46;101023.78;5083750;27;48068;-91
2021/06/19 10:46:31;;;;;;;;;10.00;9.00;;;;;29.03;48.53;101009.22;5029190;28;45339;-92
2021/06/19 10:48:58;;;;;;;;;6.33;6.33;;;;;29.18;48.63;101006.66;5008678;28;46003;-92
2021/06/19 10:51:28;;;;;;;;;7.67;7.67;;;;;29.41;48.54;100998.72;4996874;28;45688;-92
2021/06/19 10:54:19;;;;;;;;;7.67;7.67;;;;;29.65;47.36;100983.53;5010491;28;46927;-92
2021/06/19 10:56:50;;;;;;;;;7.33;7.33;;;;;29.80;47.49;100983.63;5009678;28;45782;-92
2021/06/19 10:59:25;;;;;;;;;7.33;7.33;;;;;30.00;46.54;100981.31;5017551;28;45481;-92
2021/06/19 11:01:53;;;;;;;;;8.33;7.33;;;;;30.19;47.07;100976.53;5033767;28;45560;-91
2021/06/19 11:04:36;;;;;;;;;7.33;6.00;;;;;30.40;45.60;100980.34;4996846;28;47262;-92
2021/06/19 11:07:09;;;;;;;;;8.00;8.00;;;;;30.59;45.66;100980.88;5011478;28;45592;-91
2021/06/19 11:09:42;;;;;;;;;7.00;7.00;;;;;30.76;45.39;100977.03;5002278;28;45512;-92
2021/06/19 11:12:25;;;;;;;;;6.33;6.33;;;;;30.89;44.84;100973.72;4978327;28;45480;-92
2021/06/19 11:15:09;;;;;;;;;6.67;6.67;;;;;30.89;44.26;100972.88;4995100;28;46603;-92
2021/06/19 11:17:36;;;;;;;;;14.00;11.00;;;;;30.82;44.65;100961.22;4994034;28;45557;-92
2021/06/19 11:20:24;;;;;;;;;6.33;6.33;;;;;30.79;44.68;100971.28;5013498;28;45362;-91
2021/06/19 11:22:53;;;;;;;;;8.33;8.00;;;;;30.84;44.17;100969.91;5040420;28;45506;-91
2021/06/19 11:25:21;;;;;;;;;8.00;8.00;;;;;30.92;43.61;100967.97;5095925;27;48077;-92
2021/06/19 11:27:56;;;;;;;;;7.67;7.67;;;;;31.01;44.10;100955.28;5078460;27;45704;-91
2021/06/19 11:30:34;;;;;;;;;8.33;8.33;;;;;31.08;43.83;100958.06;5094373;27;45656;-93
2021/06/19 11:33:24;;;;;;;;;6.33;6.33;;;;;31.13;43.37;100968.22;5097536;27;45254;-92
2021/06/19 11:36:04;;;;;;;;;7.67;7.67;;;;;31.17;44.06;100959.63;5096377;27;45984;-92
2021/06/19 11:38:49;;;;;;;;;7.33;7.33;;;;;31.26;43.62;100959.50;5096699;27;46851;-92
2021/06/19 11:41:33;;;;;;;;;9.33;8.33;;;;;31.41;42.96;100960.34;5095539;27;45758;-92
2021/06/19 11:44:01;;;;;;;;;5.33;5.00;;;;;31.57;42.80;100966.53;5093324;27;45490;-93
2021/06/19 11:46:30;;;;;;;;;9.33;8.33;;;;;31.68;43.17;100966.03;5077229;28;45723;-93
2021/06/19 11:49:07;;;;;;;;;6.67;6.67;;;;;31.80;42.56;100962.84;5076465;27;45681;-92
2021/06/19 11:51:58;;;;;;;;;8.67;7.33;;;;;31.94;42.36;100950.41;5078091;27;45411;-92
2021/06/19 11:54:25;;;;;;;;;11.67;11.67;;;;;32.10;42.66;100952.81;5060317;27;45546;-92
2021/06/19 11:57:53;;;;;;;;;10.00;10.00;;;;;32.25;41.85;100954.56;5079336;27;47267;-93
2021/06/19 12:00:26;;;;;;;;;7.00;7.00;;;;;32.38;42.13;100945.78;4958751;28;45572;-92
2021/06/19 12:02:53;;;;;;;;;10.00;8.67;;;;;32.38;42.00;100940.41;4968529;28;45454;-92
2021/06/19 12:05:27;;;;;;;;;7.00;7.00;;;;;32.39;41.82;100945.59;4961622;28;46730;-92
2021/06/19 12:08:07;;;;;;;;;9.00;9.00;;;;;32.38;41.37;100941.25;4968633;28;48100;-92
2021/06/19 12:11:00;;;;;;;;;;;;;;;;;;;;;
2021/06/19 12:14:11;;;;;;;;;7.67;7.67;;;;;32.26;40.72;100932.03;4973183;28;67974;-92
2021/06/19 12:16:50;;;;;;;;;7.00;7.00;;;;;32.24;40.25;100929.53;4970756;28;45686;-92
2021/06/19 12:19:37;;;;;;;;;7.00;7.00;;;;;32.26;40.57;100929.34;4974585;28;47126;-92
2021/06/19 12:22:27;;;;;;;;;7.67;7.67;;;;;32.31;40.29;100918.84;4958583;28;45542;-92
2021/06/19 12:25:08;;;;;;;;;8.67;8.67;;;;;32.34;40.38;100917.59;4960999;28;45679;-93
2021/06/19 12:31:44;;;;;;;;;6.67;6.67;;;;;32.19;40.75;100905.06;4935128;28;45500;-92
2021/06/19 12:34:40;;;;;;;;;7.33;7.00;;;;;32.15;40.04;100905.66;4843958;29;45539;-92
2021/06/19 12:37:16;;;;;;;;;7.67;7.67;;;;;32.02;39.98;100895.63;4914617;28;45497;-92
2021/06/19 12:39:53;;;;;;;;;7.33;7.33;;;;;31.97;40.46;100886.25;4958748;28;45419;-92